createdAt,value
2019-03-15T00:00:23.923Z,999.44
2019-03-15T00:00:50.216Z,999.44
2019-03-15T00:01:15.930Z,999.44
2019-03-15T00:01:42.053Z,999.42
2019-03-15T00:02:07.931Z,999.46
2019-03-15T00:02:33.993Z,999.43
2019-03-15T00:02:59.917Z,999.42
2019-03-15T00:03:25.917Z,999.48
2019-03-15T00:03:51.928Z,999.45
2019-03-15T00:04:18.005Z,999.45
2019-03-15T00:04:43.921Z,999.54
2019-03-15T00:05:09.938Z,999.49
2019-03-15T00:05:35.918Z,999.48
2019-03-15T00:06:01.936Z,999.51
2019-03-15T00:06:27.921Z,999.49
2019-03-15T00:06:53.931Z,999.51
2019-03-15T00:07:20.010Z,999.51
2019-03-15T00:07:45.936Z,999.59
2019-03-15T00:08:11.940Z,999.55
2019-03-15T00:08:37.940Z,999.54
2019-03-15T00:09:03.928Z,999.63
2019-03-15T00:09:29.942Z,999.62
2019-03-15T00:09:55.930Z,999.64
2019-03-15T00:10:21.952Z,999.63
2019-03-15T00:10:47.928Z,999.62
2019-03-15T00:11:13.936Z,999.63
2019-03-15T00:11:39.937Z,999.66
2019-03-15T00:12:06.383Z,999.66
2019-03-15T00:12:31.945Z,999.65
2019-03-15T00:12:57.950Z,999.61
2019-03-15T00:13:23.936Z,999.7
2019-03-15T00:13:49.937Z,999.69
2019-03-15T00:14:15.933Z,999.62
2019-03-15T00:14:41.948Z,999.7
2019-03-15T00:15:08.015Z,999.7
2019-03-15T00:15:33.932Z,999.76
2019-03-15T00:15:59.948Z,999.74
2019-03-15T00:16:25.938Z,999.76
2019-03-15T00:16:51.953Z,999.73
2019-03-15T00:17:17.934Z,999.69
2019-03-15T00:17:43.938Z,999.75
2019-03-15T00:18:09.953Z,999.73
2019-03-15T00:18:36.023Z,999.74
2019-03-15T00:19:01.953Z,999.73
2019-03-15T00:19:27.961Z,999.72
2019-03-15T00:19:53.940Z,999.73
2019-03-15T00:20:19.959Z,999.73
2019-03-15T00:20:45.942Z,999.75
2019-03-15T00:21:11.951Z,999.71
2019-03-15T00:21:37.958Z,999.71
2019-03-15T00:22:04.013Z,999.72
2019-03-15T00:22:29.959Z,999.74
2019-03-15T00:22:55.948Z,999.65
2019-03-15T00:23:21.958Z,999.73
2019-03-15T00:23:47.950Z,999.7
2019-03-15T00:24:13.948Z,999.71
2019-03-15T00:24:39.964Z,999.7
2019-03-15T00:25:05.964Z,999.69
2019-03-15T00:25:31.972Z,999.66
2019-03-15T00:25:57.964Z,999.66
2019-03-15T00:26:23.948Z,999.74
2019-03-15T00:26:49.955Z,999.74
2019-03-15T00:27:15.955Z,999.73
2019-03-15T00:27:41.964Z,999.73
2019-03-15T00:28:08.036Z,999.75
2019-03-15T00:28:34.100Z,999.76
2019-03-15T00:28:59.989Z,999.73
2019-03-15T00:29:25.955Z,999.73
2019-03-15T00:29:51.973Z,999.75
2019-03-15T00:30:17.956Z,999.77
2019-03-15T00:30:43.956Z,999.74
2019-03-15T00:31:09.969Z,999.65
2019-03-15T00:31:36.050Z,999.76
2019-03-15T00:32:02.050Z,999.78
2019-03-15T00:32:27.973Z,999.78
2019-03-15T00:32:53.960Z,999.81
2019-03-15T00:33:19.974Z,999.84
2019-03-15T00:33:45.963Z,999.88
2019-03-15T00:34:12.011Z,999.9
2019-03-15T00:34:37.966Z,999.9
2019-03-15T00:35:04.031Z,999.95
2019-03-15T00:35:29.981Z,999.96
2019-03-15T00:35:55.978Z,999.94
2019-03-15T00:36:21.981Z,999.92
2019-03-15T00:36:47.966Z,999.95
2019-03-15T00:37:13.965Z,999.94
2019-03-15T00:37:40.048Z,999.96
2019-03-15T00:38:05.968Z,1000
2019-03-15T00:38:32.209Z,1000
2019-03-15T00:38:58.047Z,999.97
2019-03-15T00:39:23.966Z,1000.03
2019-03-15T00:39:49.984Z,999.98
2019-03-15T00:40:15.970Z,999.99
2019-03-15T00:40:41.987Z,1000.08
2019-03-15T00:41:08.028Z,1000.04
2019-03-15T00:41:33.971Z,1000.01
2019-03-15T00:41:59.987Z,1000.08
2019-03-15T00:42:26.048Z,1000.01
2019-03-15T00:42:51.989Z,1000.02
2019-03-15T00:43:17.988Z,1000
2019-03-15T00:43:43.973Z,1000.02
2019-03-15T00:44:09.988Z,999.95
2019-03-15T00:44:35.971Z,999.92
2019-03-15T00:45:02.016Z,1000.03
2019-03-15T00:45:27.976Z,1000.02
2019-03-15T00:45:53.981Z,1000.1
2019-03-15T00:46:20.011Z,1000.01
2019-03-15T00:46:45.991Z,999.98
2019-03-15T00:47:11.991Z,1000.09
2019-03-15T00:47:37.981Z,1000
2019-03-15T00:48:04.250Z,1000.02
2019-03-15T00:48:29.977Z,1000.06
2019-03-15T00:48:55.978Z,1000.06
2019-03-15T00:49:21.989Z,1000.07
2019-03-15T00:49:47.997Z,999.98
2019-03-15T00:50:14.055Z,999.99
2019-03-15T00:50:40.000Z,1000.01
2019-03-15T00:51:06.001Z,999.93
2019-03-15T00:51:32.030Z,999.94
2019-03-15T00:51:57.991Z,999.98
2019-03-15T00:52:23.994Z,999.93
2019-03-15T00:52:49.994Z,999.94
2019-03-15T00:53:15.998Z,999.92
2019-03-15T00:53:42.066Z,999.98
2019-03-15T00:54:08.012Z,1000.01
2019-03-15T00:54:33.994Z,999.95
2019-03-15T00:55:00.010Z,999.93
2019-03-15T00:55:25.993Z,999.93
2019-03-15T00:55:51.994Z,999.85
2019-03-15T00:56:18.013Z,999.88
2019-03-15T00:56:44.060Z,999.9
2019-03-15T00:57:10.011Z,999.86
2019-03-15T00:57:36.016Z,999.9
2019-03-15T00:58:02.014Z,999.92
2019-03-15T00:58:28.116Z,999.93
2019-03-15T00:58:53.995Z,999.85
2019-03-15T00:59:20.016Z,999.89
2019-03-15T00:59:46.081Z,999.87
2019-03-15T01:00:12.021Z,999.85
2019-03-15T01:00:38.018Z,999.89
2019-03-15T01:01:04.001Z,999.9
2019-03-15T01:01:30.001Z,999.93
2019-03-15T01:01:56.015Z,999.91
2019-03-15T01:02:22.161Z,999.89
2019-03-15T01:02:48.012Z,999.87
2019-03-15T01:03:14.069Z,999.9
2019-03-15T01:03:40.021Z,999.88
2019-03-15T01:04:06.007Z,999.86
2019-03-15T01:04:32.515Z,999.86
2019-03-15T01:04:58.008Z,999.86
2019-03-15T01:05:24.013Z,999.91
2019-03-15T01:05:50.611Z,999.9
2019-03-15T01:06:16.026Z,999.93
2019-03-15T01:06:42.021Z,999.92
2019-03-15T01:07:08.024Z,999.89
2019-03-15T01:07:34.011Z,999.88
2019-03-15T01:08:00.009Z,999.92
2019-03-15T01:08:26.014Z,999.89
2019-03-15T01:08:52.371Z,999.97
2019-03-15T01:09:18.040Z,999.91
2019-03-15T01:09:44.039Z,999.97
2019-03-15T01:10:10.033Z,999.9
2019-03-15T01:10:36.018Z,999.9
2019-03-15T01:11:02.030Z,1000.04
2019-03-15T01:11:28.018Z,1000.04
2019-03-15T01:11:54.020Z,1000.01
2019-03-15T01:12:20.027Z,1000.06
2019-03-15T01:12:46.032Z,1000.07
2019-03-15T01:13:12.099Z,1000.05
2019-03-15T01:13:38.036Z,1000.03
2019-03-15T01:14:04.018Z,1000.1
2019-03-15T01:14:30.034Z,1000.12
2019-03-15T01:14:56.022Z,1000.1
2019-03-15T01:15:22.039Z,1000.07
2019-03-15T01:15:48.021Z,1000.09
2019-03-15T01:16:14.057Z,1000.16
2019-03-15T01:16:40.038Z,1000.17
2019-03-15T01:17:07.120Z,1000.16
2019-03-15T01:17:32.035Z,1000.16
2019-03-15T01:17:58.022Z,1000.16
2019-03-15T01:18:24.029Z,1000.21
2019-03-15T01:18:50.025Z,1000.23
2019-03-15T01:19:16.027Z,1000.17
2019-03-15T01:19:42.067Z,1000.29
2019-03-15T01:20:08.116Z,1000.24
2019-03-15T01:20:34.027Z,1000.21
2019-03-15T01:21:00.045Z,1000.25
2019-03-15T01:21:26.034Z,1000.2
2019-03-15T01:21:52.181Z,1000.24
2019-03-15T01:22:18.077Z,1000.29
2019-03-15T01:22:44.069Z,1000.24
2019-03-15T01:23:10.095Z,1000.32
2019-03-15T01:23:36.129Z,1000.25
2019-03-15T01:24:02.064Z,1000.24
2019-03-15T01:24:28.213Z,1000.28
2019-03-15T01:24:54.085Z,1000.34
2019-03-15T01:25:20.280Z,1000.25
2019-03-15T01:25:46.075Z,1000.26
2019-03-15T01:26:12.050Z,1000.29
2019-03-15T01:26:38.124Z,1000.28
2019-03-15T01:27:04.423Z,1000.29
2019-03-15T01:27:30.053Z,1000.3
2019-03-15T01:27:56.041Z,1000.24
2019-03-15T01:28:22.052Z,1000.24
2019-03-15T01:28:48.037Z,1000.25
2019-03-15T01:29:14.042Z,1000.23
2019-03-15T01:29:40.044Z,1000.28
2019-03-15T01:30:06.058Z,1000.26
2019-03-15T01:30:32.498Z,1000.23
2019-03-15T01:30:58.057Z,1000.28
2019-03-15T01:31:24.042Z,1000.28
2019-03-15T01:31:50.058Z,1000.32
2019-03-15T01:32:16.043Z,1000.3
2019-03-15T01:32:42.059Z,1000.3
2019-03-15T01:33:08.049Z,1000.29
2019-03-15T01:33:34.044Z,1000.34
2019-03-15T01:34:00.085Z,1000.39
2019-03-15T01:34:26.051Z,1000.35
2019-03-15T01:34:52.061Z,1000.36
2019-03-15T01:35:18.052Z,1000.4
2019-03-15T01:35:44.052Z,1000.36
2019-03-15T01:36:10.087Z,1000.38
2019-03-15T01:36:36.130Z,1000.38
2019-03-15T01:37:02.066Z,1000.42
2019-03-15T01:37:28.064Z,1000.46
2019-03-15T01:37:54.052Z,1000.41
2019-03-15T01:38:20.066Z,1000.49
2019-03-15T01:38:46.054Z,1000.47
2019-03-15T01:39:12.074Z,1000.49
2019-03-15T01:39:38.052Z,1000.48
2019-03-15T01:40:04.057Z,1000.49
2019-03-15T01:40:30.135Z,1000.5
2019-03-15T01:40:56.075Z,1000.54
2019-03-15T01:41:22.072Z,1000.51
2019-03-15T01:41:48.071Z,1000.5
2019-03-15T01:42:14.080Z,1000.45
2019-03-15T01:42:40.058Z,1000.55
2019-03-15T01:43:06.063Z,1000.57
2019-03-15T01:43:32.068Z,1000.58
2019-03-15T01:43:58.075Z,1000.55
2019-03-15T01:44:24.131Z,1000.6
2019-03-15T01:44:50.080Z,1000.61
2019-03-15T01:45:16.081Z,1000.62
2019-03-15T01:45:42.075Z,1000.66
2019-03-15T01:46:08.074Z,1000.63
2019-03-15T01:46:34.063Z,1000.63
2019-03-15T01:47:00.065Z,1000.64
2019-03-15T01:47:26.067Z,1000.63
2019-03-15T01:47:52.078Z,1000.67
2019-03-15T01:48:18.086Z,1000.68
2019-03-15T01:48:44.066Z,1000.68
2019-03-15T01:49:10.083Z,1000.62
2019-03-15T01:49:36.069Z,1000.63
2019-03-15T01:50:02.086Z,1000.66
2019-03-15T01:50:28.070Z,1000.62
2019-03-15T01:50:54.069Z,1000.62
2019-03-15T01:51:20.085Z,1000.58
2019-03-15T01:51:46.140Z,1000.58
2019-03-15T01:52:12.205Z,1000.62
2019-03-15T01:52:38.088Z,1000.63
2019-03-15T01:53:04.075Z,1000.64
2019-03-15T01:53:30.086Z,1000.64
2019-03-15T01:53:56.072Z,1000.63
2019-03-15T01:54:22.085Z,1000.61
2019-03-15T01:54:48.153Z,1000.66
2019-03-15T01:55:14.164Z,1000.66
2019-03-15T01:55:40.089Z,1000.66
2019-03-15T01:56:06.092Z,1000.67
2019-03-15T01:56:32.093Z,1000.69
2019-03-15T01:56:58.079Z,1000.64
2019-03-15T01:57:24.079Z,1000.68
2019-03-15T01:57:50.083Z,1000.67
2019-03-15T01:58:16.083Z,1000.68
2019-03-15T01:58:42.096Z,1000.71
2019-03-15T01:59:08.099Z,1000.66
2019-03-15T01:59:34.087Z,1000.72
2019-03-15T02:00:00.096Z,1000.73
2019-03-15T02:00:26.084Z,1000.72
2019-03-15T02:00:52.096Z,1000.72
2019-03-15T02:01:18.091Z,1000.71
2019-03-15T02:01:44.299Z,1000.79
2019-03-15T02:02:10.099Z,1000.74
2019-03-15T02:02:36.090Z,1000.77
2019-03-15T02:03:02.100Z,1000.73
2019-03-15T02:03:28.087Z,1000.75
2019-03-15T02:03:54.088Z,1000.72
2019-03-15T02:04:20.324Z,1000.72
2019-03-15T02:04:46.155Z,1000.69
2019-03-15T02:05:12.103Z,1000.74
2019-03-15T02:05:38.105Z,1000.76
2019-03-15T02:06:04.093Z,1000.68
2019-03-15T02:06:30.105Z,1000.68
2019-03-15T02:06:56.094Z,1000.75
2019-03-15T02:07:22.113Z,1000.78
2019-03-15T02:07:48.093Z,1000.8
2019-03-15T02:08:14.102Z,1000.78
2019-03-15T02:08:40.113Z,1000.81
2019-03-15T02:09:06.113Z,1000.81
2019-03-15T02:09:32.108Z,1000.74
2019-03-15T02:09:58.095Z,1000.82
2019-03-15T02:10:24.095Z,1000.79
2019-03-15T02:10:50.099Z,1000.77
2019-03-15T02:11:16.735Z,1000.77
2019-03-15T02:11:42.114Z,1000.75
2019-03-15T02:12:08.116Z,1000.73
2019-03-15T02:12:34.170Z,1000.75
2019-03-15T02:13:00.118Z,1000.68
2019-03-15T02:13:26.102Z,1000.68
2019-03-15T02:13:52.596Z,1000.68
2019-03-15T02:14:18.099Z,1000.64
2019-03-15T02:14:44.104Z,1000.65
2019-03-15T02:15:10.119Z,1000.72
2019-03-15T02:15:36.174Z,1000.7
2019-03-15T02:16:02.118Z,1000.68
2019-03-15T02:16:28.117Z,1000.69
2019-03-15T02:16:54.110Z,1000.71
2019-03-15T02:17:20.303Z,1000.73
2019-03-15T02:17:46.107Z,1000.72
2019-03-15T02:18:12.123Z,1000.74
2019-03-15T02:18:38.113Z,1000.73
2019-03-15T02:19:04.116Z,1000.71
2019-03-15T02:19:30.183Z,1000.75
2019-03-15T02:19:56.126Z,1000.72
2019-03-15T02:20:22.120Z,1000.69
2019-03-15T02:20:48.123Z,1000.7
2019-03-15T02:21:14.108Z,1000.69
2019-03-15T02:21:40.115Z,1000.65
2019-03-15T02:22:06.109Z,1000.66
2019-03-15T02:22:32.128Z,1000.62
2019-03-15T02:22:58.362Z,1000.63
2019-03-15T02:23:24.119Z,1000.61
2019-03-15T02:23:50.130Z,1000.68
2019-03-15T02:24:16.115Z,1000.63
2019-03-15T02:24:42.132Z,1000.64
2019-03-15T02:25:08.119Z,1000.6
2019-03-15T02:25:34.115Z,1000.62
2019-03-15T02:26:00.135Z,1000.63
2019-03-15T02:26:26.123Z,1000.68
2019-03-15T02:26:52.135Z,1000.67
2019-03-15T02:27:18.120Z,1000.65
2019-03-15T02:27:44.123Z,1000.64
2019-03-15T02:28:10.127Z,1000.67
2019-03-15T02:28:36.127Z,1000.67
2019-03-15T02:29:02.137Z,1000.67
2019-03-15T02:29:28.137Z,1000.69
2019-03-15T02:29:54.131Z,1000.66
2019-03-15T02:30:20.137Z,1000.66
2019-03-15T02:30:46.131Z,1000.68
2019-03-15T02:31:12.141Z,1000.72
2019-03-15T02:31:38.126Z,1000.72
2019-03-15T02:32:04.134Z,1000.76
2019-03-15T02:32:30.207Z,1000.71
2019-03-15T02:32:56.142Z,1000.7
2019-03-15T02:33:22.143Z,1000.73
2019-03-15T02:33:48.127Z,1000.73
2019-03-15T02:34:14.128Z,1000.72
2019-03-15T02:34:40.132Z,1000.73
2019-03-15T02:35:06.140Z,1000.7
2019-03-15T02:35:32.377Z,1000.71
2019-03-15T02:35:58.147Z,1000.7
2019-03-15T02:36:24.134Z,1000.73
2019-03-15T02:36:50.146Z,1000.73
2019-03-15T02:37:16.136Z,1000.71
2019-03-15T02:37:42.149Z,1000.76
2019-03-15T02:38:08.133Z,1000.73
2019-03-15T02:38:34.138Z,1000.79
2019-03-15T02:39:00.151Z,1000.75
2019-03-15T02:39:26.153Z,1000.73
2019-03-15T02:39:52.169Z,1000.72
2019-03-15T02:40:18.156Z,1000.74
2019-03-15T02:40:44.142Z,1000.74
2019-03-15T02:41:10.191Z,1000.71
2019-03-15T02:41:36.143Z,1000.72
2019-03-15T02:42:02.488Z,1000.75
2019-03-15T02:42:28.160Z,1000.73
2019-03-15T02:42:54.140Z,1000.73
2019-03-15T02:43:20.156Z,1000.73
2019-03-15T02:43:46.143Z,1000.72
2019-03-15T02:44:12.159Z,1000.75
2019-03-15T02:44:38.144Z,1000.74
2019-03-15T02:45:04.144Z,1000.73
2019-03-15T02:45:30.162Z,1000.71
2019-03-15T02:45:56.245Z,1000.67
2019-03-15T02:46:22.163Z,1000.72
2019-03-15T02:46:48.177Z,1000.7
2019-03-15T02:47:14.147Z,1000.67
2019-03-15T02:47:40.164Z,1000.68
2019-03-15T02:48:06.147Z,1000.68
2019-03-15T02:48:32.167Z,1000.68
2019-03-15T02:48:58.459Z,1000.66
2019-03-15T02:49:24.158Z,1000.69
2019-03-15T02:49:50.169Z,1000.7
2019-03-15T02:50:16.236Z,1000.67
2019-03-15T02:50:42.180Z,1000.68
2019-03-15T02:51:08.172Z,1000.69
2019-03-15T02:51:34.156Z,1000.71
2019-03-15T02:52:00.155Z,1000.63
2019-03-15T02:52:26.152Z,1000.64
2019-03-15T02:52:52.172Z,1000.7
2019-03-15T02:53:18.172Z,1000.69
2019-03-15T02:53:44.159Z,1000.7
2019-03-15T02:54:10.172Z,1000.71
2019-03-15T02:54:36.160Z,1000.71
2019-03-15T02:55:02.175Z,1000.71
2019-03-15T02:55:28.162Z,1000.66
2019-03-15T02:55:54.158Z,1000.63
2019-03-15T02:56:20.183Z,1000.66
2019-03-15T02:56:46.188Z,1000.66
2019-03-15T02:57:12.177Z,1000.67
2019-03-15T02:57:38.176Z,1000.69
2019-03-15T02:58:04.404Z,1000.66
2019-03-15T02:58:30.181Z,1000.68
2019-03-15T02:58:56.165Z,1000.69
2019-03-15T02:59:22.182Z,1000.71
2019-03-15T02:59:48.166Z,1000.76
2019-03-15T03:00:14.176Z,1000.78
2019-03-15T03:00:40.185Z,1000.75
2019-03-15T03:01:06.190Z,1000.77
2019-03-15T03:01:32.183Z,1000.71
2019-03-15T03:01:58.183Z,1000.73
2019-03-15T03:02:24.169Z,1000.74
2019-03-15T03:02:50.173Z,1000.7
2019-03-15T03:03:16.172Z,1000.7
2019-03-15T03:03:42.178Z,1000.72
2019-03-15T03:04:08.252Z,1000.67
2019-03-15T03:04:34.644Z,1000.73
2019-03-15T03:05:00.188Z,1000.73
2019-03-15T03:05:26.178Z,1000.76
2019-03-15T03:05:52.193Z,1000.74
2019-03-15T03:06:18.174Z,1000.73
2019-03-15T03:06:44.203Z,1000.67
2019-03-15T03:07:10.194Z,1000.68
2019-03-15T03:07:36.252Z,1000.69
2019-03-15T03:08:02.190Z,1000.65
2019-03-15T03:08:28.192Z,1000.65
2019-03-15T03:08:54.178Z,1000.66
2019-03-15T03:09:20.195Z,1000.69
2019-03-15T03:09:46.184Z,1000.69
2019-03-15T03:10:12.195Z,1000.68
2019-03-15T03:10:38.184Z,1000.7
2019-03-15T03:11:04.188Z,1000.73
2019-03-15T03:11:30.258Z,1000.75
2019-03-15T03:11:56.198Z,1000.8
2019-03-15T03:12:22.199Z,1000.79
2019-03-15T03:12:48.183Z,1000.78
2019-03-15T03:13:14.185Z,1000.79
2019-03-15T03:13:40.184Z,1000.78
2019-03-15T03:14:06.196Z,1000.77
2019-03-15T03:14:32.421Z,1000.74
2019-03-15T03:14:58.207Z,1000.75
2019-03-15T03:15:24.192Z,1000.72
2019-03-15T03:15:50.205Z,1000.73
2019-03-15T03:16:16.186Z,1000.75
2019-03-15T03:16:42.186Z,1000.75
2019-03-15T03:17:08.198Z,1000.72
2019-03-15T03:17:34.263Z,1000.74
2019-03-15T03:18:00.204Z,1000.72
2019-03-15T03:18:26.209Z,1000.7
2019-03-15T03:18:52.211Z,1000.72
2019-03-15T03:19:18.209Z,1000.71
2019-03-15T03:19:44.192Z,1000.72
2019-03-15T03:20:10.210Z,1000.76
2019-03-15T03:20:36.192Z,1000.74
2019-03-15T03:21:02.436Z,1000.74
2019-03-15T03:21:28.214Z,1000.7
2019-03-15T03:21:54.265Z,1000.71
2019-03-15T03:22:20.211Z,1000.69
2019-03-15T03:22:46.198Z,1000.67
2019-03-15T03:23:12.217Z,1000.68
2019-03-15T03:23:38.203Z,1000.72
2019-03-15T03:24:04.205Z,1000.72
2019-03-15T03:24:30.217Z,1000.7
2019-03-15T03:24:56.217Z,1000.7
2019-03-15T03:25:22.218Z,1000.7
2019-03-15T03:25:48.223Z,1000.65
2019-03-15T03:26:14.202Z,1000.65
2019-03-15T03:26:40.201Z,1000.66
2019-03-15T03:27:06.206Z,1000.66
2019-03-15T03:27:32.212Z,1000.6
2019-03-15T03:27:58.214Z,1000.64
2019-03-15T03:28:24.215Z,1000.61
2019-03-15T03:28:50.284Z,1000.65
2019-03-15T03:29:16.224Z,1000.64
2019-03-15T03:29:42.223Z,1000.66
2019-03-15T03:30:08.222Z,1000.73
2019-03-15T03:30:34.211Z,1000.67
2019-03-15T03:31:00.208Z,1000.67
2019-03-15T03:31:26.215Z,1000.72
2019-03-15T03:31:52.220Z,1000.71
2019-03-15T03:32:18.299Z,1000.68
2019-03-15T03:32:44.219Z,1000.69
2019-03-15T03:33:10.230Z,1000.76
2019-03-15T03:33:36.212Z,1000.73
2019-03-15T03:34:02.233Z,1000.76
2019-03-15T03:34:28.214Z,1000.76
2019-03-15T03:34:54.225Z,1000.75
2019-03-15T03:35:20.294Z,1000.76
2019-03-15T03:35:46.235Z,1000.73
2019-03-15T03:36:12.231Z,1000.72
2019-03-15T03:36:38.215Z,1000.74
2019-03-15T03:37:04.218Z,1000.74
2019-03-15T03:37:30.224Z,1000.75
2019-03-15T03:37:56.589Z,1000.75
2019-03-15T03:38:22.234Z,1000.7
2019-03-15T03:38:48.238Z,1000.67
2019-03-15T03:39:14.225Z,1000.72
2019-03-15T03:39:40.416Z,1000.73
2019-03-15T03:40:06.219Z,1000.74
2019-03-15T03:40:32.254Z,1000.64
2019-03-15T03:40:58.233Z,1000.68
2019-03-15T03:41:24.232Z,1000.67
2019-03-15T03:41:50.239Z,1000.68
2019-03-15T03:42:16.312Z,1000.71
2019-03-15T03:42:42.244Z,1000.68
2019-03-15T03:43:08.241Z,1000.71
2019-03-15T03:43:34.230Z,1000.69
2019-03-15T03:44:00.228Z,1000.71
2019-03-15T03:44:26.227Z,1000.68
2019-03-15T03:44:52.249Z,1000.7
2019-03-15T03:45:18.245Z,1000.7
2019-03-15T03:45:44.227Z,1000.72
2019-03-15T03:46:10.243Z,1000.66
2019-03-15T03:46:36.234Z,1000.7
2019-03-15T03:47:02.390Z,1000.72
2019-03-15T03:47:28.232Z,1000.69
2019-03-15T03:47:54.240Z,1000.73
2019-03-15T03:48:20.249Z,1000.68
2019-03-15T03:48:46.249Z,1000.69
2019-03-15T03:49:12.253Z,1000.67
2019-03-15T03:49:38.250Z,1000.66
2019-03-15T03:50:04.238Z,1000.7
2019-03-15T03:50:30.239Z,1000.67
2019-03-15T03:50:56.237Z,1000.66
2019-03-15T03:51:22.255Z,1000.71
2019-03-15T03:51:48.259Z,1000.67
2019-03-15T03:52:14.307Z,1000.68
2019-03-15T03:52:40.254Z,1000.67
2019-03-15T03:53:06.258Z,1000.71
2019-03-15T03:53:32.256Z,1000.72
2019-03-15T03:53:58.242Z,1000.73
2019-03-15T03:54:24.241Z,1000.72
2019-03-15T03:54:50.249Z,1000.73
2019-03-15T03:55:16.326Z,1000.71
2019-03-15T03:55:42.256Z,1000.77
2019-03-15T03:56:08.260Z,1000.75
2019-03-15T03:56:34.246Z,1000.73
2019-03-15T03:57:00.249Z,1000.73
2019-03-15T03:57:26.261Z,1000.73
2019-03-15T03:57:52.267Z,1000.74
2019-03-15T03:58:18.269Z,1000.74
2019-03-15T03:58:44.250Z,1000.78
2019-03-15T03:59:10.262Z,1000.74
2019-03-15T03:59:36.248Z,1000.71
2019-03-15T04:00:02.268Z,1000.8
2019-03-15T04:00:28.250Z,1000.73
2019-03-15T04:00:54.247Z,1000.77
2019-03-15T04:01:20.446Z,1000.77
2019-03-15T04:01:46.266Z,1000.76
2019-03-15T04:02:12.271Z,1000.77
2019-03-15T04:02:38.271Z,1000.75
2019-03-15T04:03:04.257Z,1000.75
2019-03-15T04:03:30.252Z,1000.73
2019-03-15T04:03:56.253Z,1000.73
2019-03-15T04:04:22.269Z,1000.72
2019-03-15T04:04:48.341Z,1000.71
2019-03-15T04:05:14.256Z,1000.73
2019-03-15T04:05:40.272Z,1000.77
2019-03-15T04:06:06.260Z,1000.74
2019-03-15T04:06:32.275Z,1000.77
2019-03-15T04:06:58.258Z,1000.78
2019-03-15T04:07:24.265Z,1000.8
2019-03-15T04:07:50.265Z,1000.81
2019-03-15T04:08:16.268Z,1000.79
2019-03-15T04:08:42.339Z,1000.78
2019-03-15T04:09:08.345Z,1000.73
2019-03-15T04:09:34.262Z,1000.72
2019-03-15T04:10:00.276Z,1000.75
2019-03-15T04:10:26.265Z,1000.74
2019-03-15T04:10:52.288Z,1000.74
2019-03-15T04:11:18.266Z,1000.76
2019-03-15T04:11:44.277Z,1000.76
2019-03-15T04:12:10.287Z,1000.76
2019-03-15T04:12:36.289Z,1000.71
2019-03-15T04:13:02.284Z,1000.74
2019-03-15T04:13:28.269Z,1000.73
2019-03-15T04:13:54.270Z,1000.7
2019-03-15T04:14:20.271Z,1000.73
2019-03-15T04:14:46.286Z,1000.7
2019-03-15T04:15:12.286Z,1000.72
2019-03-15T04:15:38.292Z,1000.7
2019-03-15T04:16:04.274Z,1000.71
2019-03-15T04:16:30.288Z,1000.76
2019-03-15T04:16:56.281Z,1000.77
2019-03-15T04:17:22.293Z,1000.71
2019-03-15T04:17:48.275Z,1000.75
2019-03-15T04:18:14.282Z,1000.77
2019-03-15T04:18:40.359Z,1000.78
2019-03-15T04:19:06.290Z,1000.7
2019-03-15T04:19:32.291Z,1000.74
2019-03-15T04:19:58.283Z,1000.75
2019-03-15T04:20:24.282Z,1000.71
2019-03-15T04:20:50.278Z,1000.74
2019-03-15T04:21:16.287Z,1000.73
2019-03-15T04:21:42.299Z,1000.72
2019-03-15T04:22:08.301Z,1000.7
2019-03-15T04:22:34.282Z,1000.7
2019-03-15T04:23:00.295Z,1000.69
2019-03-15T04:23:26.283Z,1000.69
2019-03-15T04:23:52.301Z,1000.7
2019-03-15T04:24:18.283Z,1000.7
2019-03-15T04:24:44.282Z,1000.71
2019-03-15T04:25:10.301Z,1000.7
2019-03-15T04:25:36.301Z,1000.73
2019-03-15T04:26:02.301Z,1000.77
2019-03-15T04:26:28.307Z,1000.76
2019-03-15T04:26:54.292Z,1000.78
2019-03-15T04:27:20.306Z,1000.75
2019-03-15T04:27:46.286Z,1000.78
2019-03-15T04:28:12.310Z,1000.78
2019-03-15T04:28:38.296Z,1000.75
2019-03-15T04:29:04.289Z,1000.75
2019-03-15T04:29:30.317Z,1000.76
2019-03-15T04:29:56.307Z,1000.79
2019-03-15T04:30:22.306Z,1000.78
2019-03-15T04:30:48.318Z,1000.75
2019-03-15T04:31:14.290Z,1000.74
2019-03-15T04:31:40.299Z,1000.71
2019-03-15T04:32:06.583Z,1000.73
2019-03-15T04:32:32.302Z,1000.75
2019-03-15T04:32:58.312Z,1000.77
2019-03-15T04:33:24.371Z,1000.82
2019-03-15T04:33:50.310Z,1000.82
2019-03-15T04:34:16.296Z,1000.88
2019-03-15T04:34:42.313Z,1000.86
2019-03-15T04:35:08.300Z,1000.87
2019-03-15T04:35:34.307Z,1000.89
2019-03-15T04:36:00.319Z,1000.89
2019-03-15T04:36:26.316Z,1000.89
2019-03-15T04:36:52.316Z,1000.86
2019-03-15T04:37:18.316Z,1000.89
2019-03-15T04:37:44.302Z,1000.91
2019-03-15T04:38:10.318Z,1000.87
2019-03-15T04:38:36.304Z,1000.86
2019-03-15T04:39:02.304Z,1000.88
2019-03-15T04:39:28.317Z,1000.84
2019-03-15T04:39:54.381Z,1000.89
2019-03-15T04:40:20.320Z,1000.85
2019-03-15T04:40:46.307Z,1000.86
2019-03-15T04:41:12.323Z,1000.88
2019-03-15T04:41:38.305Z,1000.87
2019-03-15T04:42:04.308Z,1000.87
2019-03-15T04:42:30.319Z,1000.9
2019-03-15T04:42:56.390Z,1000.86
2019-03-15T04:43:22.326Z,1000.92
2019-03-15T04:43:48.374Z,1000.9
2019-03-15T04:44:14.313Z,1000.87
2019-03-15T04:44:40.318Z,1000.88
2019-03-15T04:45:06.313Z,1000.89
2019-03-15T04:45:32.340Z,1000.89
2019-03-15T04:45:58.392Z,1000.9
2019-03-15T04:46:24.314Z,1000.92
2019-03-15T04:46:50.328Z,1000.94
2019-03-15T04:47:16.316Z,1000.92
2019-03-15T04:47:42.332Z,1000.94
2019-03-15T04:48:08.316Z,1000.94
2019-03-15T04:48:34.330Z,1000.9
2019-03-15T04:49:00.401Z,1000.93
2019-03-15T04:49:26.333Z,1000.9
2019-03-15T04:49:52.335Z,1000.9
2019-03-15T04:50:18.338Z,1000.91
2019-03-15T04:50:44.507Z,1000.89
2019-03-15T04:51:10.337Z,1000.92
2019-03-15T04:51:36.321Z,1000.89
2019-03-15T04:52:02.323Z,1000.87
2019-03-15T04:52:28.333Z,1000.85
2019-03-15T04:52:54.393Z,1000.85
2019-03-15T04:53:20.339Z,1000.84
2019-03-15T04:53:46.331Z,1000.84
2019-03-15T04:54:12.340Z,1000.87
2019-03-15T04:54:38.326Z,1000.84
2019-03-15T04:55:04.329Z,1000.86
2019-03-15T04:55:30.327Z,1000.9
2019-03-15T04:55:56.344Z,1000.88
2019-03-15T04:56:22.409Z,1000.86
2019-03-15T04:56:48.346Z,1000.88
2019-03-15T04:57:14.330Z,1000.86
2019-03-15T04:57:40.345Z,1000.87
2019-03-15T04:58:06.722Z,1000.87
2019-03-15T04:58:32.347Z,1000.84
2019-03-15T04:58:58.337Z,1000.86
2019-03-15T04:59:24.333Z,1000.86
2019-03-15T04:59:50.332Z,1000.83
2019-03-15T05:00:16.340Z,1000.87
2019-03-15T05:00:42.350Z,1000.83
2019-03-15T05:01:08.416Z,1000.86
2019-03-15T05:01:34.956Z,1000.86
2019-03-15T05:02:00.352Z,1000.89
2019-03-15T05:02:26.335Z,1000.91
2019-03-15T05:02:52.906Z,1000.95
2019-03-15T05:03:18.340Z,1000.92
2019-03-15T05:03:44.338Z,1000.95
2019-03-15T05:04:10.349Z,1000.93
2019-03-15T05:04:36.360Z,1000.9
2019-03-15T05:05:02.357Z,1000.92
2019-03-15T05:05:28.358Z,1000.91
2019-03-15T05:05:54.341Z,1000.9
2019-03-15T05:06:20.358Z,1000.91
2019-03-15T05:06:46.344Z,1000.88
2019-03-15T05:07:12.360Z,1000.88
2019-03-15T05:07:38.343Z,1000.88
2019-03-15T05:08:04.348Z,1000.88
2019-03-15T05:08:30.362Z,1000.86
2019-03-15T05:08:56.361Z,1000.9
2019-03-15T05:09:22.361Z,1000.85
2019-03-15T05:09:48.345Z,1000.85
2019-03-15T05:10:14.353Z,1000.85
2019-03-15T05:10:40.347Z,1000.83
2019-03-15T05:11:06.364Z,1000.85
2019-03-15T05:11:32.429Z,1000.87
2019-03-15T05:11:58.380Z,1000.84
2019-03-15T05:12:24.350Z,1000.86
2019-03-15T05:12:50.368Z,1000.87
2019-03-15T05:13:16.357Z,1000.89
2019-03-15T05:13:42.370Z,1000.88
2019-03-15T05:14:08.355Z,1000.88
2019-03-15T05:14:34.353Z,1000.91
2019-03-15T05:15:00.432Z,1000.9
2019-03-15T05:15:26.371Z,1000.87
2019-03-15T05:15:52.371Z,1000.88
2019-03-15T05:16:18.372Z,1000.87
2019-03-15T05:16:44.719Z,1000.83
2019-03-15T05:17:10.377Z,1000.83
2019-03-15T05:17:36.360Z,1000.83